createdAt,value
2023-03-30T00:00:13.493Z,85.25
2023-03-30T00:01:13.674Z,85.46
2023-03-30T00:02:13.890Z,85.46
2023-03-30T00:03:14.205Z,85.46
2023-03-30T00:04:14.502Z,85.66
2023-03-30T00:05:14.670Z,85.77
2023-03-30T00:06:14.833Z,85.87
2023-03-30T00:07:15.016Z,85.97
2023-03-30T00:08:15.207Z,86.07
2023-03-30T00:09:15.513Z,86.18
2023-03-30T00:10:15.710Z,85.97
2023-03-30T00:11:15.895Z,86.28
2023-03-30T00:12:16.094Z,86.90
2023-03-30T00:13:16.283Z,86.48
2023-03-30T00:14:16.473Z,86.58
2023-03-30T00:15:16.796Z,86.79
2023-03-30T00:16:17.011Z,87.20
2023-03-30T00:17:17.274Z,87.41
2023-03-30T00:18:17.454Z,87.82
2023-03-30T00:19:17.767Z,87.51
2023-03-30T00:20:18.007Z,87.71
2023-03-30T00:21:18.561Z,87.92
2023-03-30T00:22:18.456Z,88.06
2023-03-30T00:23:18.750Z,88.47
2023-03-30T00:24:19.041Z,88.57
2023-03-30T00:25:19.373Z,89.39
2023-03-30T00:26:19.588Z,89.70
2023-03-30T00:27:19.777Z,89.19
2023-03-30T00:28:19.993Z,89.29
2023-03-30T00:29:20.190Z,89.70
2023-03-30T00:30:20.385Z,90.22
2023-03-30T00:31:20.742Z,89.60
2023-03-30T00:32:20.969Z,90.42
2023-03-30T00:33:30.373Z,89.95
2023-03-30T00:34:22.459Z,90.42
2023-03-30T00:35:21.772Z,90.52
2023-03-30T00:36:22.014Z,90.83
2023-03-30T00:37:22.174Z,91.18
2023-03-30T00:38:22.359Z,91.08
2023-03-30T00:39:22.674Z,91.28
2023-03-30T00:40:22.876Z,90.87
2023-03-30T00:41:23.074Z,91.18
2023-03-30T00:42:23.257Z,91.18
2023-03-30T00:43:23.570Z,91.28
2023-03-30T00:44:23.752Z,91.08
2023-03-30T00:45:24.075Z,91.49
2023-03-30T00:46:24.302Z,92.10
2023-03-30T00:47:24.501Z,91.80
2023-03-30T00:48:24.682Z,91.80
2023-03-30T00:49:24.993Z,91.69
2023-03-30T00:50:25.203Z,91.80
2023-03-30T00:51:25.403Z,91.69
2023-03-30T00:52:25.604Z,91.80
2023-03-30T00:53:25.881Z,91.69
2023-03-30T00:54:26.166Z,92.10
2023-03-30T00:55:26.476Z,92.10
2023-03-30T00:56:26.678Z,92.21
2023-03-30T00:57:27.007Z,91.90
2023-03-30T00:58:27.161Z,92.00
2023-03-30T00:59:27.478Z,92.21
2023-03-30T01:00:27.692Z,92.51
2023-03-30T01:01:27.924Z,92.31
2023-03-30T01:02:28.187Z,92.31
2023-03-30T01:03:28.452Z,92.10
2023-03-30T01:04:28.608Z,92.31
2023-03-30T01:05:29.113Z,92.51
2023-03-30T01:06:29.112Z,92.72
2023-03-30T01:07:29.444Z,92.72
2023-03-30T01:08:29.628Z,92.51
2023-03-30T01:09:29.933Z,92.72
2023-03-30T01:10:30.139Z,92.61
2023-03-30T01:11:30.335Z,92.61
2023-03-30T01:12:30.529Z,92.61
2023-03-30T01:13:30.865Z,92.61
2023-03-30T01:14:31.046Z,93.02
2023-03-30T01:15:31.407Z,92.93
2023-03-30T01:16:31.564Z,93.23
2023-03-30T01:17:31.919Z,93.85
2023-03-30T01:18:32.070Z,94.15
2023-03-30T01:19:32.384Z,93.95
2023-03-30T01:20:32.590Z,94.26
2023-03-30T01:21:32.795Z,94.20
2023-03-30T01:22:32.999Z,94.26
2023-03-30T01:23:33.298Z,94.51
2023-03-30T01:24:33.477Z,94.40
2023-03-30T01:25:33.808Z,94.30
2023-03-30T01:26:33.988Z,94.51
2023-03-30T01:27:34.298Z,94.40
2023-03-30T01:28:34.491Z,94.71
2023-03-30T01:29:34.764Z,94.81
2023-03-30T01:30:34.966Z,94.92
2023-03-30T01:31:35.296Z,94.30
2023-03-30T01:32:35.420Z,94.40
2023-03-30T01:33:35.713Z,94.61
2023-03-30T01:34:35.910Z,94.92
2023-03-30T01:35:36.256Z,95.02
2023-03-30T01:36:36.405Z,95.06
2023-03-30T01:37:36.599Z,94.96
2023-03-30T01:38:36.900Z,94.96
2023-03-30T01:39:37.204Z,95.06
2023-03-30T01:40:37.524Z,95.17
2023-03-30T01:41:37.719Z,95.47
2023-03-30T01:42:37.914Z,95.37
2023-03-30T01:43:38.229Z,95.17
2023-03-30T01:44:38.425Z,95.47
2023-03-30T01:45:38.636Z,95.06
2023-03-30T01:46:38.869Z,94.85
2023-03-30T01:47:39.064Z,95.06
2023-03-30T01:48:39.339Z,94.76
2023-03-30T01:49:39.643Z,94.85
2023-03-30T01:50:39.977Z,95.17
2023-03-30T01:51:40.171Z,95.06
2023-03-30T01:52:40.491Z,95.06
2023-03-30T01:53:40.689Z,94.65
2023-03-30T01:54:41.000Z,94.65
2023-03-30T01:55:41.301Z,94.65
2023-03-30T01:56:41.526Z,94.85
2023-03-30T01:57:41.805Z,94.76
2023-03-30T01:58:42.125Z,94.65
2023-03-30T01:59:42.329Z,94.55
2023-03-30T02:00:42.680Z,94.55
2023-03-30T02:01:42.899Z,94.85
2023-03-30T02:02:43.155Z,94.85
2023-03-30T02:03:43.366Z,94.96
2023-03-30T02:04:43.586Z,95.27
2023-03-30T02:05:43.804Z,95.06
2023-03-30T02:06:44.022Z,95.17
2023-03-30T02:07:44.227Z,95.06
2023-03-30T02:08:44.443Z,94.76
2023-03-30T02:09:44.753Z,94.96
2023-03-30T02:10:44.996Z,94.85
2023-03-30T02:11:45.195Z,94.65
2023-03-30T02:12:45.504Z,94.55
2023-03-30T02:13:45.798Z,94.76
2023-03-30T02:14:46.116Z,94.65
2023-03-30T02:15:46.364Z,94.96
2023-03-30T02:16:46.620Z,94.76
2023-03-30T02:17:46.797Z,94.85
2023-03-30T02:18:47.086Z,94.96
2023-03-30T02:19:47.290Z,95.06
2023-03-30T02:20:47.652Z,94.85
2023-03-30T02:21:47.873Z,94.76
2023-03-30T02:22:48.192Z,94.92
2023-03-30T02:23:48.396Z,94.92
2023-03-30T02:24:48.585Z,94.51
2023-03-30T02:25:48.793Z,94.61
2023-03-30T02:26:49.004Z,94.61
2023-03-30T02:27:49.193Z,94.71
2023-03-30T02:28:49.520Z,94.51
2023-03-30T02:29:49.696Z,94.40
2023-03-30T02:30:50.017Z,94.40
2023-03-30T02:31:50.260Z,94.51
2023-03-30T02:32:50.500Z,94.51
2023-03-30T02:33:50.683Z,94.40
2023-03-30T02:34:50.995Z,94.40
2023-03-30T02:35:51.231Z,94.20
2023-03-30T02:36:51.415Z,94.10
2023-03-30T02:37:51.611Z,94.40
2023-03-30T02:38:51.931Z,94.30
2023-03-30T02:39:52.158Z,94.30
2023-03-30T02:40:52.371Z,94.40
2023-03-30T02:41:52.584Z,94.20
2023-03-30T02:42:52.780Z,94.20
2023-03-30T02:43:52.979Z,94.20
2023-03-30T02:44:53.294Z,94.30
2023-03-30T02:45:53.551Z,94.40
2023-03-30T02:46:53.725Z,94.20
2023-03-30T02:47:53.933Z,94.30
2023-03-30T02:48:54.232Z,94.20
2023-03-30T02:49:54.437Z,94.30
2023-03-30T02:50:54.752Z,94.30
2023-03-30T02:51:54.945Z,94.20
2023-03-30T02:52:55.280Z,94.40
2023-03-30T02:53:55.449Z,94.40
2023-03-30T02:54:55.675Z,94.40
2023-03-30T02:55:55.870Z,94.30
2023-03-30T02:56:56.091Z,94.10
2023-03-30T02:57:56.284Z,94.30
2023-03-30T02:58:56.601Z,94.30
2023-03-30T02:59:56.774Z,94.51
2023-03-30T03:00:59.368Z,94.30
2023-03-30T03:01:57.302Z,94.30
2023-03-30T03:02:57.780Z,94.10
2023-03-30T03:03:57.857Z,94.10
2023-03-30T03:04:58.047Z,94.20
2023-03-30T03:05:58.368Z,94.40
2023-03-30T03:06:58.563Z,94.40
2023-03-30T03:07:58.746Z,94.61
2023-03-30T03:08:59.068Z,94.61
2023-03-30T03:09:59.263Z,94.51
2023-03-30T03:10:59.479Z,94.51
2023-03-30T03:11:59.669Z,94.51
2023-03-30T03:12:59.967Z,94.51
2023-03-30T03:14:00.178Z,94.51
2023-03-30T03:15:00.451Z,94.51
2023-03-30T03:16:02.891Z,94.61
2023-03-30T03:17:00.947Z,94.61
2023-03-30T03:18:01.196Z,94.61
2023-03-30T03:19:01.355Z,94.71
2023-03-30T03:20:01.567Z,94.61
2023-03-30T03:21:02.170Z,94.61
2023-03-30T03:22:02.143Z,94.61
2023-03-30T03:23:02.468Z,94.71
2023-03-30T03:24:02.659Z,94.81
2023-03-30T03:25:02.970Z,94.61
2023-03-30T03:26:03.193Z,94.71
2023-03-30T03:27:03.363Z,94.81
2023-03-30T03:28:03.568Z,94.71
2023-03-30T03:29:03.760Z,94.81
2023-03-30T03:30:03.956Z,94.71
2023-03-30T03:31:04.500Z,94.61
2023-03-30T03:32:04.501Z,94.51
2023-03-30T03:33:05.007Z,94.61
2023-03-30T03:34:04.894Z,94.51
2023-03-30T03:35:05.114Z,94.40
2023-03-30T03:36:05.374Z,94.51
2023-03-30T03:37:05.545Z,94.40
2023-03-30T03:38:05.719Z,94.51
2023-03-30T03:39:06.042Z,94.51
2023-03-30T03:40:06.241Z,94.51
2023-03-30T03:41:06.619Z,94.51
2023-03-30T03:42:06.640Z,94.40
2023-03-30T03:43:06.950Z,94.20
2023-03-30T03:44:07.137Z,94.20
2023-03-30T03:45:07.457Z,94.20
2023-03-30T03:46:07.730Z,94.10
2023-03-30T03:47:07.877Z,94.20
2023-03-30T03:48:08.122Z,94.30
2023-03-30T03:49:08.334Z,94.30
2023-03-30T03:50:08.528Z,94.40
2023-03-30T03:51:08.765Z,94.40
2023-03-30T03:52:09.478Z,94.40
2023-03-30T03:53:09.216Z,94.51
2023-03-30T03:54:09.410Z,94.61
2023-03-30T03:55:09.720Z,94.40
2023-03-30T03:56:09.914Z,94.51
2023-03-30T03:57:10.265Z,94.40
2023-03-30T03:58:10.341Z,94.30
2023-03-30T03:59:10.660Z,94.30
2023-03-30T04:00:10.865Z,94.40
2023-03-30T04:01:11.222Z,94.51
2023-03-30T04:02:11.415Z,94.51
2023-03-30T04:03:11.740Z,94.51
2023-03-30T04:04:11.969Z,94.51
2023-03-30T04:05:12.184Z,94.51
2023-03-30T04:06:12.412Z,94.61
2023-03-30T04:07:12.602Z,94.61
2023-03-30T04:08:12.817Z,94.51
2023-03-30T04:09:13.012Z,94.61
2023-03-30T04:10:13.224Z,94.61
2023-03-30T04:11:13.444Z,94.71
2023-03-30T04:12:13.661Z,94.81
2023-03-30T04:13:13.980Z,94.92
2023-03-30T04:14:14.167Z,94.81
2023-03-30T04:15:14.478Z,94.81
2023-03-30T04:16:14.805Z,94.81
2023-03-30T04:17:21.958Z,94.92
2023-03-30T04:18:17.826Z,94.81
2023-03-30T04:19:15.802Z,94.92
2023-03-30T04:20:15.599Z,94.81
2023-03-30T04:21:15.861Z,94.81
2023-03-30T04:22:16.109Z,94.81
2023-03-30T04:23:16.397Z,94.92
2023-03-30T04:24:16.628Z,94.92
2023-03-30T04:25:16.901Z,94.92
2023-03-30T04:26:17.189Z,94.92
2023-03-30T04:27:17.466Z,95.02
2023-03-30T04:28:18.294Z,95.02
2023-03-30T04:29:18.002Z,95.12
2023-03-30T04:30:18.304Z,95.12
2023-03-30T04:31:18.685Z,95.12
2023-03-30T04:32:18.848Z,95.12
2023-03-30T04:33:19.101Z,95.12
2023-03-30T04:34:19.394Z,95.12
2023-03-30T04:35:19.726Z,95.12
2023-03-30T04:36:19.948Z,95.12
2023-03-30T04:37:20.143Z,95.02
2023-03-30T04:38:20.356Z,95.02
2023-03-30T04:39:20.561Z,95.02
2023-03-30T04:40:20.765Z,95.02
2023-03-30T04:41:21.097Z,95.02
2023-03-30T04:42:21.316Z,95.12
2023-03-30T04:43:21.509Z,95.12
2023-03-30T04:44:21.811Z,95.12
2023-03-30T04:45:22.002Z,95.12
2023-03-30T04:46:22.358Z,95.23
2023-03-30T04:47:22.665Z,95.23
2023-03-30T04:48:22.825Z,95.32
2023-03-30T04:49:23.150Z,95.23
2023-03-30T04:50:23.383Z,95.12
2023-03-30T04:51:23.670Z,95.12
2023-03-30T04:52:23.872Z,95.02
2023-03-30T04:53:24.192Z,95.12
2023-03-30T04:54:24.516Z,95.12
2023-03-30T04:55:24.709Z,95.32
2023-03-30T04:56:24.917Z,95.47
2023-03-30T04:57:25.234Z,95.57
2023-03-30T04:58:25.410Z,95.57
2023-03-30T04:59:25.730Z,95.68
2023-03-30T05:00:25.929Z,95.68
2023-03-30T05:01:26.268Z,95.64
2023-03-30T05:02:26.536Z,95.64
2023-03-30T05:03:26.842Z,95.64
2023-03-30T05:04:26.982Z,95.53
2023-03-30T05:05:27.290Z,95.64
2023-03-30T05:06:27.493Z,95.64
2023-03-30T05:07:27.700Z,95.53
2023-03-30T05:08:27.894Z,95.43
2023-03-30T05:09:28.240Z,95.32
2023-03-30T05:10:28.451Z,95.32
2023-03-30T05:11:28.658Z,95.32
2023-03-30T05:12:28.869Z,95.23
2023-03-30T05:13:29.093Z,95.32
2023-03-30T05:14:29.280Z,95.23
2023-03-30T05:15:29.472Z,95.12
2023-03-30T05:16:29.816Z,95.02
2023-03-30T05:17:30.027Z,94.81
2023-03-30T05:18:30.214Z,94.71
2023-03-30T05:19:30.441Z,94.81
2023-03-30T05:20:30.655Z,94.61
2023-03-30T05:21:30.875Z,94.61
2023-03-30T05:22:31.096Z,94.61
2023-03-30T05:23:31.330Z,94.51
2023-03-30T05:24:31.523Z,94.40
2023-03-30T05:25:31.832Z,94.30
2023-03-30T05:26:32.088Z,94.30
2023-03-30T05:27:32.260Z,94.20
2023-03-30T05:28:32.650Z,94.15
2023-03-30T05:29:32.737Z,94.15
2023-03-30T05:30:32.948Z,93.95
2023-03-30T05:31:33.190Z,94.10
2023-03-30T05:32:33.450Z,94.10
2023-03-30T05:33:33.714Z,93.99
2023-03-30T05:34:33.902Z,93.99
2023-03-30T05:35:34.241Z,94.10
2023-03-30T05:36:34.532Z,94.05
2023-03-30T05:37:34.720Z,94.05
2023-03-30T05:38:34.908Z,93.85
2023-03-30T05:39:35.247Z,93.85
2023-03-30T05:40:35.498Z,93.74
2023-03-30T05:41:35.764Z,93.54
2023-03-30T05:42:35.953Z,93.44
2023-03-30T05:43:36.278Z,93.33
2023-03-30T05:44:36.480Z,93.23
2023-03-30T05:45:36.800Z,93.13
2023-03-30T05:46:37.112Z,93.23
2023-03-30T05:47:37.295Z,93.23
2023-03-30T05:48:37.472Z,93.23
2023-03-30T05:49:37.668Z,93.33
2023-03-30T05:50:37.860Z,93.13
2023-03-30T05:51:38.078Z,93.02
2023-03-30T05:52:38.280Z,92.93
2023-03-30T05:53:38.487Z,92.93
2023-03-30T05:54:38.674Z,92.72
2023-03-30T05:55:38.992Z,92.61
2023-03-30T05:56:39.228Z,92.61
2023-03-30T05:57:39.416Z,92.47
2023-03-30T05:58:39.654Z,92.31
2023-03-30T05:59:39.840Z,92.36
2023-03-30T06:00:40.144Z,92.27
2023-03-30T06:01:40.358Z,92.27
2023-03-30T06:02:40.613Z,92.16
2023-03-30T06:03:40.929Z,91.96
2023-03-30T06:04:41.118Z,91.75
2023-03-30T06:05:41.307Z,91.65
2023-03-30T06:06:41.527Z,91.75
2023-03-30T06:07:41.728Z,91.75
2023-03-30T06:08:42.010Z,91.65
2023-03-30T06:09:42.163Z,91.44
2023-03-30T06:10:42.502Z,91.24
2023-03-30T06:11:42.704Z,91.35
2023-03-30T06:12:42.902Z,91.35
2023-03-30T06:13:43.119Z,91.03
2023-03-30T06:14:43.318Z,91.14
2023-03-30T06:15:43.513Z,91.24
2023-03-30T06:16:43.918Z,91.24
2023-03-30T06:17:44.144Z,91.09
2023-03-30T06:18:44.376Z,91.09
2023-03-30T06:19:44.550Z,90.99
2023-03-30T06:20:44.872Z,90.79
2023-03-30T06:21:45.084Z,90.79
2023-03-30T06:22:45.299Z,90.79
2023-03-30T06:23:45.504Z,90.28
2023-03-30T06:24:45.716Z,90.07
2023-03-30T06:25:45.920Z,90.03
2023-03-30T06:26:46.129Z,90.03
2023-03-30T06:27:46.315Z,89.83
2023-03-30T06:28:46.634Z,89.72
2023-03-30T06:29:46.815Z,89.51
2023-03-30T06:30:47.017Z,89.31
2023-03-30T06:31:47.257Z,89.00
2023-03-30T06:32:47.489Z,89.00
2023-03-30T06:33:47.686Z,89.17
2023-03-30T06:34:47.866Z,88.56
2023-03-30T06:35:48.081Z,88.35
2023-03-30T06:36:48.422Z,88.24
2023-03-30T06:37:48.592Z,88.24
2023-03-30T06:38:48.891Z,88.10
2023-03-30T06:39:49.059Z,87.79
2023-03-30T06:40:49.379Z,88.00
2023-03-30T06:41:49.570Z,87.59
2023-03-30T06:42:49.762Z,87.79
2023-03-30T06:43:49.944Z,87.59
2023-03-30T06:44:50.129Z,87.70
2023-03-30T06:45:50.356Z,87.59
2023-03-30T06:46:50.540Z,87.79
2023-03-30T06:47:50.768Z,87.49
2023-03-30T06:48:50.918Z,87.59
2023-03-30T06:49:51.210Z,87.49
2023-03-30T06:50:51.410Z,87.90
2023-03-30T06:51:51.586Z,87.70
2023-03-30T06:52:51.777Z,87.59
2023-03-30T06:53:51.958Z,87.49
2023-03-30T06:54:52.246Z,87.35
2023-03-30T06:55:52.436Z,87.14
2023-03-30T06:56:52.947Z,86.94
2023-03-30T06:57:52.888Z,86.63
2023-03-30T06:58:53.185Z,86.49
2023-03-30T06:59:53.357Z,86.08
2023-03-30T07:00:53.662Z,84.81
2023-03-30T07:01:53.983Z,84.91
2023-03-30T07:02:54.221Z,84.91
2023-03-30T07:03:54.382Z,85.02
2023-03-30T07:04:54.641Z,85.12
2023-03-30T07:05:54.817Z,84.71
2023-03-30T07:06:55.263Z,85.16
2023-03-30T07:07:55.325Z,85.57
2023-03-30T07:08:55.607Z,85.77
2023-03-30T07:09:55.882Z,86.08
2023-03-30T07:10:56.168Z,83.53
2023-03-30T07:11:56.753Z,80.26
2023-03-30T07:12:56.626Z,77.20
2023-03-30T07:13:56.914Z,75.23
2023-03-30T07:14:57.098Z,74.04
2023-03-30T07:15:58.201Z,73.13
2023-03-30T07:16:57.541Z,73.63
2023-03-30T07:17:57.711Z,72.78
2023-03-30T07:18:57.942Z,72.04
2023-03-30T07:19:58.100Z,70.45
2023-03-30T07:20:58.262Z,69.20
2023-03-30T07:21:58.434Z,68.36
2023-03-30T07:22:58.611Z,69.54
2023-03-30T07:23:58.762Z,69.71
2023-03-30T07:24:58.911Z,68.83
2023-03-30T07:25:59.199Z,69.24
2023-03-30T07:26:59.262Z,69.20
2023-03-30T07:27:59.408Z,68.60
2023-03-30T07:28:59.551Z,69.00
2023-03-30T07:30:10.408Z,69.10
2023-03-30T07:31:00.867Z,67.93
2023-03-30T07:32:00.070Z,67.22
2023-03-30T07:33:00.362Z,68.46
2023-03-30T07:34:00.407Z,68.02
2023-03-30T07:35:03.095Z,66.98
2023-03-30T07:36:00.702Z,66.24
2023-03-30T07:37:01.292Z,66.91
2023-03-30T07:38:03.834Z,66.58
2023-03-30T07:39:01.148Z,67.35
2023-03-30T07:40:01.289Z,67.76
2023-03-30T07:41:01.547Z,66.67
2023-03-30T07:42:01.554Z,67.76
2023-03-30T07:43:01.727Z,67.99
2023-03-30T07:44:01.793Z,69.57
2023-03-30T07:45:02.047Z,67.22
2023-03-30T07:46:02.196Z,66.67
2023-03-30T07:47:02.402Z,65.91
2023-03-30T07:48:02.564Z,65.97
2023-03-30T07:49:02.660Z,66.88
2023-03-30T07:50:02.800Z,65.61
2023-03-30T07:51:03.119Z,65.50
2023-03-30T07:52:03.092Z,65.30
2023-03-30T07:53:03.206Z,65.61
2023-03-30T07:54:03.327Z,64.46
2023-03-30T07:55:03.548Z,64.03
2023-03-30T07:56:03.666Z,64.36
2023-03-30T07:57:03.993Z,63.62
2023-03-30T07:58:03.989Z,63.26
2023-03-30T07:59:04.086Z,62.52
2023-03-30T08:00:04.202Z,63.06
2023-03-30T08:01:04.498Z,62.59
2023-03-30T08:02:04.474Z,63.93
2023-03-30T08:03:04.707Z,62.52
2023-03-30T08:04:04.756Z,61.92
2023-03-30T08:05:04.937Z,61.25
2023-03-30T08:06:05.016Z,61.08
2023-03-30T08:07:05.129Z,61.52
2023-03-30T08:08:05.260Z,61.41
2023-03-30T08:09:05.373Z,61.41
2023-03-30T08:10:05.501Z,61.69
2023-03-30T08:11:05.747Z,60.75
2023-03-30T08:12:05.690Z,60.22
2023-03-30T08:13:05.803Z,59.39
2023-03-30T08:14:05.884Z,59.16
2023-03-30T08:15:05.987Z,58.45
2023-03-30T08:16:06.148Z,59.34
2023-03-30T08:17:06.274Z,59.95
2023-03-30T08:18:06.391Z,59.08
2023-03-30T08:19:06.485Z,57.79
2023-03-30T08:20:06.596Z,57.62
2023-03-30T08:21:06.926Z,57.62
2023-03-30T08:22:06.863Z,57.39
2023-03-30T08:23:06.967Z,55.53
2023-03-30T08:24:07.047Z,55.73
2023-03-30T08:25:07.150Z,55.76
2023-03-30T08:26:07.249Z,56.26
2023-03-30T08:27:07.638Z,55.86
2023-03-30T08:28:07.523Z,56.62
2023-03-30T08:29:07.630Z,57.35
2023-03-30T08:30:07.735Z,57.22
2023-03-30T08:31:08.028Z,57.42
2023-03-30T08:32:08.013Z,56.79
2023-03-30T08:33:08.085Z,56.66
2023-03-30T08:34:08.140Z,55.96
2023-03-30T08:35:08.317Z,56.79
2023-03-30T08:36:08.481Z,56.99
2023-03-30T08:37:08.562Z,56.36
2023-03-30T08:38:08.667Z,56.38
2023-03-30T08:39:08.800Z,56.38
2023-03-30T08:40:08.868Z,57.48
2023-03-30T08:41:08.991Z,59.67
2023-03-30T08:42:09.126Z,59.95
2023-03-30T08:43:09.238Z,57.82
2023-03-30T08:44:09.313Z,57.50
2023-03-30T08:45:09.397Z,56.49
2023-03-30T08:46:09.559Z,56.06
2023-03-30T08:47:09.636Z,56.71
2023-03-30T08:48:09.773Z,57.88
2023-03-30T08:49:09.859Z,59.04
2023-03-30T08:50:09.956Z,60.17
2023-03-30T08:51:10.097Z,60.71
2023-03-30T08:52:10.279Z,61.14
2023-03-30T08:53:10.394Z,62.08
2023-03-30T08:54:10.475Z,61.65
2023-03-30T08:55:10.576Z,61.85
2023-03-30T08:56:10.684Z,61.98
2023-03-30T08:57:10.842Z,62.08
2023-03-30T08:58:10.928Z,62.08
2023-03-30T08:59:11.038Z,62.18
2023-03-30T09:00:11.167Z,61.95
2023-03-30T09:01:12.292Z,62.18
2023-03-30T09:02:11.477Z,62.18
2023-03-30T09:03:11.616Z,62.59
2023-03-30T09:04:11.747Z,62.55
2023-03-30T09:05:11.902Z,62.55
2023-03-30T09:06:12.036Z,62.25
2023-03-30T09:07:12.180Z,61.95
2023-03-30T09:08:12.315Z,62.59
2023-03-30T09:09:12.429Z,62.68
2023-03-30T09:10:12.544Z,63.12
2023-03-30T09:11:12.692Z,63.22
2023-03-30T09:12:12.806Z,63.52
2023-03-30T09:13:12.924Z,63.09
2023-03-30T09:14:13.050Z,62.88
2023-03-30T09:15:13.188Z,62.88
2023-03-30T09:16:13.356Z,62.76
2023-03-30T09:17:13.493Z,62.35
2023-03-30T09:18:13.711Z,62.48
2023-03-30T09:19:13.828Z,62.48
2023-03-30T09:20:13.985Z,62.38
2023-03-30T09:21:14.148Z,62.59
2023-03-30T09:22:14.254Z,62.25
2023-03-30T09:23:14.406Z,62.65
2023-03-30T09:24:14.558Z,62.15
2023-03-30T09:25:14.681Z,62.25
2023-03-30T09:26:14.838Z,62.45
2023-03-30T09:27:14.959Z,62.68
2023-03-30T09:28:16.042Z,62.99
2023-03-30T09:29:15.280Z,63.29
2023-03-30T09:30:15.427Z,63.52
2023-03-30T09:31:16.048Z,63.62
2023-03-30T09:32:15.871Z,63.82
2023-03-30T09:33:15.992Z,64.33
2023-03-30T09:34:16.135Z,64.33
2023-03-30T09:35:16.260Z,64.33
2023-03-30T09:36:16.416Z,63.90
2023-03-30T09:37:16.639Z,63.59
2023-03-30T09:38:16.768Z,63.49
2023-03-30T09:39:16.888Z,63.39
2023-03-30T09:40:17.050Z,63.90
2023-03-30T09:41:17.187Z,64.23
2023-03-30T09:42:17.339Z,64.53
2023-03-30T09:43:17.491Z,64.73
2023-03-30T09:44:17.614Z,64.43
2023-03-30T09:45:17.858Z,64.43
2023-03-30T09:46:18.046Z,64.87
2023-03-30T09:47:18.189Z,65.17
2023-03-30T09:48:18.311Z,65.57
2023-03-30T09:49:18.558Z,65.27
2023-03-30T09:50:18.685Z,65.27
2023-03-30T09:51:18.949Z,65.37
2023-03-30T09:52:19.089Z,65.78
2023-03-30T09:53:19.240Z,65.37
2023-03-30T09:54:19.392Z,65.14
2023-03-30T09:55:19.515Z,65.07
2023-03-30T09:56:19.676Z,65.34
2023-03-30T09:57:19.831Z,64.87
2023-03-30T09:58:19.991Z,65.47
2023-03-30T09:59:20.138Z,66.01
2023-03-30T10:00:20.378Z,66.31
2023-03-30T10:01:20.552Z,66.52
2023-03-30T10:02:20.816Z,66.52
2023-03-30T10:03:21.013Z,66.21
2023-03-30T10:04:21.038Z,66.52
2023-03-30T10:05:21.166Z,66.72
2023-03-30T10:06:21.292Z,66.41
2023-03-30T10:07:21.570Z,66.48
2023-03-30T10:08:24.411Z,66.18
2023-03-30T10:09:21.971Z,66.18
2023-03-30T10:10:22.111Z,66.61
2023-03-30T10:11:22.265Z,66.72
2023-03-30T10:12:22.410Z,67.02
2023-03-30T10:13:22.550Z,67.35
2023-03-30T10:14:22.693Z,67.32
2023-03-30T10:15:22.944Z,67.43
2023-03-30T10:16:23.139Z,67.46
2023-03-30T10:17:30.301Z,67.55
2023-03-30T10:18:23.416Z,67.66
2023-03-30T10:19:23.533Z,67.46
2023-03-30T10:20:23.844Z,67.35
2023-03-30T10:21:24.011Z,67.15
2023-03-30T10:22:24.163Z,67.46
2023-03-30T10:23:24.352Z,67.46
2023-03-30T10:24:24.488Z,67.66
2023-03-30T10:25:24.619Z,67.55
2023-03-30T10:26:24.872Z,67.52
2023-03-30T10:27:25.012Z,67.32
2023-03-30T10:28:25.166Z,67.22
2023-03-30T10:29:25.306Z,67.22
2023-03-30T10:30:25.555Z,67.32
2023-03-30T10:31:27.726Z,67.52
2023-03-30T10:32:25.972Z,67.63
2023-03-30T10:33:26.072Z,67.32
2023-03-30T10:34:26.281Z,67.43
2023-03-30T10:35:26.438Z,67.32
2023-03-30T10:36:26.644Z,67.12
2023-03-30T10:37:26.805Z,67.12
2023-03-30T10:38:26.964Z,66.89
2023-03-30T10:39:27.103Z,66.48
2023-03-30T10:40:27.304Z,66.35
2023-03-30T10:41:27.424Z,66.05
2023-03-30T10:42:27.543Z,65.81
2023-03-30T10:43:27.673Z,65.81
2023-03-30T10:44:27.831Z,65.41
2023-03-30T10:45:28.015Z,65.41
2023-03-30T10:46:28.457Z,65.41
2023-03-30T10:47:28.443Z,65.28
2023-03-30T10:48:28.505Z,65.08
2023-03-30T10:49:28.669Z,64.78
2023-03-30T10:50:28.811Z,64.87
2023-03-30T10:51:28.925Z,64.98
2023-03-30T10:52:29.184Z,64.75
2023-03-30T10:53:29.344Z,64.24
2023-03-30T10:54:29.492Z,64.01
2023-03-30T10:55:29.634Z,62.94
2023-03-30T10:56:29.753Z,61.47
2023-03-30T10:57:30.112Z,60.44
2023-03-30T10:58:30.178Z,60.00
2023-03-30T10:59:30.322Z,60.13
2023-03-30T11:00:30.419Z,61.07
2023-03-30T11:01:30.721Z,61.70
2023-03-30T11:02:30.815Z,61.47
2023-03-30T11:03:31.042Z,62.13
2023-03-30T11:04:31.081Z,62.66
2023-03-30T11:05:32.738Z,63.30
2023-03-30T11:06:31.473Z,64.04
2023-03-30T11:07:31.474Z,64.64
2023-03-30T11:08:31.607Z,64.98
2023-03-30T11:09:31.728Z,65.28
2023-03-30T11:10:31.945Z,65.38
2023-03-30T11:11:32.056Z,65.35
2023-03-30T11:12:32.222Z,65.15
2023-03-30T11:13:32.356Z,64.84
2023-03-30T11:14:32.590Z,64.61
2023-03-30T11:15:32.720Z,64.41
2023-03-30T11:16:32.879Z,64.11
2023-03-30T11:17:32.992Z,64.21
2023-03-30T11:18:33.204Z,63.78
2023-03-30T11:19:33.331Z,63.65
2023-03-30T11:20:33.509Z,63.34
2023-03-30T11:21:33.634Z,62.30
2023-03-30T11:22:33.805Z,61.87
2023-03-30T11:23:33.876Z,61.87
2023-03-30T11:24:34.005Z,62.01
2023-03-30T11:25:34.155Z,61.98
2023-03-30T11:26:34.361Z,62.01
2023-03-30T11:27:34.467Z,62.10
2023-03-30T11:28:34.569Z,62.94
2023-03-30T11:29:34.673Z,62.94
2023-03-30T11:30:35.197Z,63.14
2023-03-30T11:31:35.101Z,63.34
2023-03-30T11:32:35.260Z,62.94
2023-03-30T11:33:35.364Z,63.34
2023-03-30T11:34:35.484Z,63.85
2023-03-30T11:35:35.611Z,63.24
2023-03-30T11:36:35.822Z,63.21
2023-03-30T11:37:36.043Z,63.11
2023-03-30T11:38:36.161Z,63.45
2023-03-30T11:39:36.295Z,63.31
2023-03-30T11:40:36.398Z,63.11
2023-03-30T11:41:36.524Z,63.31
2023-03-30T11:42:36.700Z,62.91
2023-03-30T11:43:36.837Z,63.01
2023-03-30T11:44:36.946Z,63.45
2023-03-30T11:45:37.062Z,64.28
2023-03-30T11:46:37.379Z,64.15
2023-03-30T11:47:37.525Z,63.71
2023-03-30T11:48:37.646Z,62.32
2023-03-30T11:49:37.770Z,60.88
2023-03-30T11:50:37.889Z,60.48
2023-03-30T11:51:38.004Z,59.72
2023-03-30T11:52:38.127Z,58.66
2023-03-30T11:53:38.407Z,57.83
2023-03-30T11:54:38.613Z,57.83
2023-03-30T11:55:38.466Z,57.70
2023-03-30T11:56:38.544Z,57.20
2023-03-30T11:57:38.655Z,57.83
2023-03-30T11:58:38.780Z,58.03
2023-03-30T11:59:38.874Z,57.93
2023-03-30T12:00:38.956Z,57.48
2023-03-30T12:01:39.031Z,55.40
2023-03-30T12:02:39.193Z,54.97
2023-03-30T12:03:39.457Z,54.04
2023-03-30T12:04:39.683Z,54.04
2023-03-30T12:05:39.438Z,54.47
2023-03-30T12:06:39.626Z,53.61
2023-03-30T12:07:39.678Z,52.99
2023-03-30T12:08:39.783Z,53.12
2023-03-30T12:09:39.841Z,53.64
2023-03-30T12:10:39.924Z,53.42
2023-03-30T12:11:40.011Z,52.79
2023-03-30T12:12:40.078Z,53.22
2023-03-30T12:13:50.639Z,53.94
2023-03-30T12:14:41.269Z,53.84
2023-03-30T12:15:40.275Z,54.06
2023-03-30T12:16:40.403Z,54.04
2023-03-30T12:17:40.451Z,52.99
2023-03-30T12:18:40.489Z,51.84
2023-03-30T12:19:55.106Z,50.85
2023-03-30T12:20:41.680Z,51.57
2023-03-30T12:21:40.792Z,51.27
2023-03-30T12:22:40.773Z,51.12
2023-03-30T12:23:40.885Z,50.80
2023-03-30T12:24:40.928Z,51.15
2023-03-30T12:25:40.961Z,52.17
2023-03-30T12:26:41.670Z,51.52
2023-03-30T12:27:41.068Z,50.50
2023-03-30T12:28:55.007Z,50.20
2023-03-30T12:30:42.288Z,51.57
2023-03-30T12:31:41.350Z,52.49
2023-03-30T12:32:41.375Z,52.69
2023-03-30T12:33:41.425Z,52.72
2023-03-30T12:34:41.570Z,52.55
2023-03-30T12:35:41.610Z,53.17
2023-03-30T12:36:41.634Z,53.67
2023-03-30T12:37:41.685Z,53.69
2023-03-30T12:38:41.748Z,53.92
2023-03-30T12:39:41.809Z,54.64
2023-03-30T12:40:41.868Z,54.85
2023-03-30T12:41:41.932Z,55.47
2023-03-30T12:42:42.010Z,55.67
2023-03-30T12:43:42.169Z,55.57
2023-03-30T12:44:42.299Z,55.15
2023-03-30T12:45:42.412Z,53.72
2023-03-30T12:46:42.525Z,53.49
2023-03-30T12:47:42.624Z,53.94
2023-03-30T12:48:42.713Z,54.35
2023-03-30T12:49:42.789Z,54.02
2023-03-30T12:50:42.879Z,52.55
2023-03-30T12:51:42.951Z,51.32
2023-03-30T12:52:43.045Z,50.47
2023-03-30T12:53:43.131Z,49.95
2023-03-30T12:54:43.212Z,49.45
2023-03-30T12:55:43.278Z,49.77